createdAt,value
2023-02-14T00:00:03.768Z,6.2
2023-02-14T00:15:01.238Z,6.2
2023-02-14T00:25:15.930Z,6.1
2023-02-14T00:50:01.478Z,6.1
2023-02-14T01:00:03.858Z,6.1
2023-02-14T01:15:01.447Z,6.0
2023-02-14T01:30:07.450Z,5.9
2023-02-14T01:45:02.362Z,5.9
2023-02-14T02:00:03.083Z,5.9
2023-02-14T02:15:01.452Z,5.9
2023-02-14T02:20:01.412Z,5.8
2023-02-14T02:30:01.454Z,5.8
2023-02-14T02:40:01.938Z,5.7
2023-02-14T02:45:01.471Z,5.7
2023-02-14T03:00:03.072Z,5.7
2023-02-14T03:10:01.472Z,5.6
2023-02-14T03:15:01.378Z,5.6
2023-02-14T03:30:01.457Z,5.6
2023-02-14T03:35:02.093Z,5.5
2023-02-14T03:45:02.373Z,5.5
2023-02-14T03:55:01.514Z,5.6
2023-02-14T04:06:02.271Z,5.5
2023-02-14T04:21:03.134Z,5.5
2023-02-14T04:31:02.039Z,5.4
2023-02-14T04:46:01.428Z,5.4
2023-02-14T04:51:06.949Z,5.3
2023-02-14T04:56:01.364Z,5.4
2023-02-14T05:11:03.070Z,5.4
2023-02-14T05:16:01.769Z,5.3
2023-02-14T05:31:01.831Z,5.2
2023-02-14T05:46:01.212Z,5.2
2023-02-14T05:51:01.678Z,5.1
2023-02-14T06:01:01.659Z,5.0
2023-02-14T06:16:01.200Z,5.1
2023-02-14T06:26:01.113Z,5.0
2023-02-14T06:41:01.948Z,5.0
2023-02-14T06:46:01.204Z,4.9
2023-02-14T06:51:01.412Z,5.0
2023-02-14T07:06:01.328Z,5.0
2023-02-14T07:11:01.680Z,5.1
2023-02-14T07:26:02.631Z,5.1
2023-02-14T07:41:01.559Z,5.1
2023-02-14T07:51:02.927Z,5.2
2023-02-14T08:07:02.237Z,5.2
2023-02-14T08:17:01.311Z,5.3
2023-02-14T08:22:02.139Z,5.4
2023-02-14T08:27:01.461Z,5.5
2023-02-14T08:32:02.440Z,5.6
2023-02-14T08:42:01.332Z,5.7
2023-02-14T08:53:01.708Z,5.8
2023-02-14T09:08:01.881Z,5.9
2023-02-14T09:18:01.331Z,6.0
2023-02-14T09:33:01.302Z,6.1
2023-02-14T09:38:16.144Z,6.2
2023-02-14T09:48:01.531Z,6.3
2023-02-14T09:53:01.307Z,6.4
2023-02-14T09:58:01.337Z,6.5
2023-02-14T10:08:01.311Z,6.6
2023-02-14T10:18:01.320Z,6.7
2023-02-14T10:28:01.400Z,6.8
2023-02-14T10:33:02.004Z,6.9
2023-02-14T10:38:02.210Z,7.0
2023-02-14T10:43:07.189Z,7.1
2023-02-14T10:53:02.033Z,7.2
2023-02-14T10:58:01.308Z,7.3
2023-02-14T11:03:01.417Z,7.4
2023-02-14T11:08:01.319Z,7.6
2023-02-14T11:18:06.150Z,7.7
2023-02-14T11:23:01.438Z,7.8
2023-02-14T11:33:01.219Z,7.9
2023-02-14T11:43:15.159Z,8.0
2023-02-14T11:58:01.887Z,8.0
2023-02-14T12:13:01.931Z,8.0
2023-02-14T12:23:01.373Z,7.9
2023-02-14T12:33:01.289Z,8.0
2023-02-14T12:48:01.150Z,8.0
2023-02-14T12:58:02.494Z,8.1
2023-02-14T13:03:01.365Z,8.2
2023-02-14T13:08:01.321Z,8.3
2023-02-14T13:13:01.759Z,8.5
2023-02-14T13:18:03.303Z,8.6
2023-02-14T13:33:01.166Z,8.6
2023-02-14T13:43:01.607Z,8.7
2023-02-14T13:53:03.112Z,8.6
2023-02-14T14:03:01.188Z,8.5
2023-02-14T14:08:02.072Z,8.4
2023-02-14T14:18:01.096Z,8.3
2023-02-14T14:33:01.192Z,8.2
2023-02-14T14:48:01.105Z,8.1
2023-02-14T15:03:01.172Z,8.0
2023-02-14T15:13:01.152Z,7.9
2023-02-14T15:18:01.147Z,7.8
2023-02-14T15:23:01.173Z,7.7
2023-02-14T15:28:01.179Z,7.5
2023-02-14T15:33:01.104Z,7.3
2023-02-14T15:38:01.954Z,7.1
2023-02-14T15:43:01.132Z,6.9
2023-02-14T15:48:01.242Z,6.7
2023-02-14T15:53:01.189Z,6.5
2023-02-14T15:58:01.186Z,6.3
2023-02-14T16:03:06.204Z,6.2
2023-02-14T16:08:01.214Z,6.0
2023-02-14T16:13:01.122Z,5.9
2023-02-14T16:18:01.155Z,5.7
2023-02-14T16:23:01.118Z,5.5
2023-02-14T16:28:01.090Z,5.4
2023-02-14T16:33:01.102Z,5.2
2023-02-14T16:38:01.199Z,5.1
2023-02-14T16:43:01.128Z,5.0
2023-02-14T16:48:01.094Z,4.8
2023-02-14T16:53:01.094Z,4.6
2023-02-14T16:58:01.102Z,4.5
2023-02-14T17:03:01.157Z,4.3
2023-02-14T17:08:01.779Z,4.2
2023-02-14T17:13:01.346Z,4.1
2023-02-14T17:18:01.145Z,3.9
2023-02-14T17:28:01.222Z,3.7
2023-02-14T17:38:01.093Z,3.6
2023-02-14T17:43:01.234Z,3.5
2023-02-14T17:48:01.960Z,3.4
2023-02-14T17:53:06.436Z,3.3
2023-02-14T17:58:01.315Z,3.2
2023-02-14T18:08:01.462Z,3.1
2023-02-14T18:13:01.874Z,3.0
2023-02-14T18:23:01.445Z,2.9
2023-02-14T18:33:01.405Z,2.8
2023-02-14T18:48:02.869Z,2.7
2023-02-14T18:53:02.023Z,2.8
2023-02-14T19:08:01.433Z,2.8
2023-02-14T19:13:01.407Z,2.9
2023-02-14T19:28:07.243Z,2.9
2023-02-14T19:43:01.660Z,2.8
2023-02-14T19:48:01.396Z,2.7
2023-02-14T19:53:02.368Z,2.6
2023-02-14T19:58:01.952Z,2.5
2023-02-14T20:08:01.696Z,2.4
2023-02-14T20:18:01.697Z,2.3
2023-02-14T20:24:01.389Z,2.2
2023-02-14T20:29:01.813Z,2.1
2023-02-14T20:34:01.373Z,2.0
2023-02-14T20:39:02.073Z,1.9
2023-02-14T20:44:03.365Z,1.8
2023-02-14T20:59:01.701Z,1.7
2023-02-14T21:14:02.501Z,1.7
2023-02-14T21:24:01.447Z,1.6
2023-02-14T21:34:07.491Z,1.5
2023-02-14T21:49:01.415Z,1.5
2023-02-14T22:04:01.405Z,1.5
2023-02-14T22:09:01.580Z,1.4
2023-02-14T22:14:02.602Z,1.3
2023-02-14T22:29:01.666Z,1.3
2023-02-14T22:44:02.499Z,1.3
2023-02-14T22:54:01.472Z,1.2
2023-02-14T23:09:01.711Z,1.1
2023-02-14T23:14:01.391Z,1.2
2023-02-14T23:29:02.414Z,1.1
2023-02-14T23:45:01.437Z,1.0
